createdAt,value
2022-07-26T00:01:59.387Z,21.26
2022-07-26T00:04:28.997Z,21.54
2022-07-26T00:06:56.787Z,21.35
2022-07-26T00:09:24.663Z,21.48
2022-07-26T00:11:52.689Z,20.88
2022-07-26T00:14:20.605Z,20.94
2022-07-26T00:16:48.457Z,21.26
2022-07-26T00:19:16.372Z,21.42
2022-07-26T00:21:45.622Z,21.29
2022-07-26T00:24:13.413Z,21.26
2022-07-26T00:26:41.206Z,21.04
2022-07-26T00:29:09.137Z,21.09
2022-07-26T00:31:37.213Z,21.14
2022-07-26T00:34:04.993Z,21.20
2022-07-26T00:36:32.746Z,21.50
2022-07-26T00:39:01.843Z,21.04
2022-07-26T00:41:29.574Z,21.37
2022-07-26T00:43:59.056Z,21.38
2022-07-26T00:46:27.324Z,21.31
2022-07-26T00:48:55.404Z,21.14
2022-07-26T00:51:23.546Z,21.00
2022-07-26T00:53:51.447Z,21.24
2022-07-26T00:56:21.623Z,21.24
2022-07-26T00:58:49.493Z,21.32
2022-07-26T01:01:17.404Z,21.54
2022-07-26T01:03:45.848Z,21.43
2022-07-26T01:06:13.709Z,21.34
2022-07-26T01:08:41.504Z,21.11
2022-07-26T01:11:09.347Z,21.09
2022-07-26T01:13:38.457Z,21.27
2022-07-26T01:16:06.667Z,20.95
2022-07-26T01:18:34.451Z,21.22
2022-07-26T01:21:13.052Z,20.79
2022-07-26T01:23:44.211Z,21.04
2022-07-26T01:26:12.266Z,20.73
2022-07-26T01:28:42.186Z,20.77
2022-07-26T01:31:10.175Z,20.84
2022-07-26T01:33:37.998Z,20.80
2022-07-26T01:36:06.333Z,20.97
2022-07-26T01:38:34.272Z,20.70
2022-07-26T01:41:03.446Z,20.88
2022-07-26T01:43:31.303Z,21.06
2022-07-26T01:45:59.672Z,20.73
2022-07-26T01:48:27.605Z,20.92
2022-07-26T01:50:55.496Z,20.96
2022-07-26T01:53:23.251Z,20.83
2022-07-26T01:55:51.099Z,20.95
2022-07-26T01:58:20.250Z,20.87
2022-07-26T02:00:48.101Z,21.09
2022-07-26T02:03:15.993Z,21.24
2022-07-26T02:05:43.883Z,20.84
2022-07-26T02:08:12.573Z,20.97
2022-07-26T02:10:58.391Z,21.00
2022-07-26T02:13:27.996Z,20.84
2022-07-26T02:15:55.858Z,20.67
2022-07-26T02:18:23.625Z,20.56
2022-07-26T02:20:51.364Z,20.61
2022-07-26T02:23:19.552Z,20.48
2022-07-26T02:25:47.780Z,20.66
2022-07-26T02:28:15.913Z,20.75
2022-07-26T02:30:46.005Z,21.03
2022-07-26T02:33:14.197Z,20.73
2022-07-26T02:35:42.431Z,20.78
2022-07-26T02:38:12.125Z,20.74
2022-07-26T02:40:41.568Z,20.64
2022-07-26T02:43:10.353Z,20.81
2022-07-26T02:45:38.640Z,20.60
2022-07-26T02:48:08.505Z,20.80
2022-07-26T02:50:36.627Z,20.81
2022-07-26T02:53:04.409Z,20.75
2022-07-26T02:55:32.379Z,20.63
2022-07-26T02:58:00.133Z,20.73
2022-07-26T03:00:28.507Z,20.43
2022-07-26T03:02:56.270Z,20.69
2022-07-26T03:05:25.469Z,20.73
2022-07-26T03:07:53.497Z,20.63
2022-07-26T03:10:21.342Z,20.55
2022-07-26T03:12:49.088Z,20.58
2022-07-26T03:15:16.952Z,20.28
2022-07-26T03:17:44.721Z,20.53
2022-07-26T03:20:13.764Z,20.41
2022-07-26T03:22:42.913Z,20.56
2022-07-26T03:25:11.001Z,20.36
2022-07-26T03:27:38.872Z,20.39
2022-07-26T03:30:08.149Z,20.65
2022-07-26T03:32:35.941Z,20.74
2022-07-26T03:35:03.746Z,20.86
2022-07-26T03:37:46.031Z,20.79
2022-07-26T03:40:16.705Z,20.50
2022-07-26T03:42:45.367Z,20.68
2022-07-26T03:45:13.842Z,20.68
2022-07-26T03:47:41.658Z,20.53
2022-07-26T03:50:10.974Z,20.68
2022-07-26T03:52:38.865Z,20.91
2022-07-26T03:55:27.499Z,20.48
2022-07-26T03:57:55.734Z,20.47
2022-07-26T04:00:23.490Z,20.63
2022-07-26T04:02:51.348Z,20.04
2022-07-26T04:05:23.435Z,20.12
2022-07-26T04:07:52.783Z,19.98
2022-07-26T04:10:21.848Z,20.20
2022-07-26T04:12:49.638Z,20.27
2022-07-26T04:15:19.197Z,20.54
2022-07-26T04:17:48.259Z,20.16
2022-07-26T04:20:16.790Z,20.37
2022-07-26T04:22:44.971Z,20.06
2022-07-26T04:25:13.014Z,20.24
2022-07-26T04:27:40.806Z,20.22
2022-07-26T04:30:14.768Z,20.38
2022-07-26T04:32:46.506Z,20.28
2022-07-26T04:35:15.350Z,20.08
2022-07-26T04:37:44.327Z,20.22
2022-07-26T04:40:16.819Z,20.41
2022-07-26T04:42:44.803Z,20.38
2022-07-26T04:45:13.783Z,20.39
2022-07-26T04:47:44.115Z,20.43
2022-07-26T04:50:12.822Z,19.99
2022-07-26T04:52:41.218Z,20.20
2022-07-26T04:55:10.442Z,20.26
2022-07-26T04:57:38.188Z,20.47
2022-07-26T05:00:21.266Z,20.42
2022-07-26T05:02:53.135Z,20.31
2022-07-26T05:05:22.348Z,20.09
2022-07-26T05:07:53.745Z,20.34
2022-07-26T05:10:24.089Z,20.18
2022-07-26T05:12:51.838Z,20.29
2022-07-26T05:15:19.656Z,20.48
2022-07-26T05:17:48.224Z,20.40
2022-07-26T05:20:17.963Z,20.62
2022-07-26T05:22:45.981Z,20.34
2022-07-26T05:25:13.898Z,20.54
2022-07-26T05:27:41.866Z,20.11
2022-07-26T05:30:10.898Z,20.47
2022-07-26T05:32:38.737Z,20.35
2022-07-26T05:35:07.762Z,20.61
2022-07-26T05:37:37.432Z,20.56
2022-07-26T05:40:06.576Z,20.59
2022-07-26T05:42:34.472Z,20.61
2022-07-26T05:45:02.203Z,20.15
2022-07-26T05:47:30.367Z,20.27
2022-07-26T05:49:58.144Z,20.58
2022-07-26T05:52:25.997Z,20.30
2022-07-26T05:54:55.106Z,20.65
2022-07-26T05:57:23.047Z,19.93
2022-07-26T05:59:50.888Z,20.20
2022-07-26T06:02:18.804Z,20.34
2022-07-26T06:04:47.622Z,19.97
2022-07-26T06:07:15.842Z,20.60
2022-07-26T06:09:43.803Z,20.48
2022-07-26T06:12:12.906Z,20.36
2022-07-26T06:14:40.660Z,20.24
2022-07-26T06:17:08.513Z,20.20
2022-07-26T06:19:36.367Z,20.48
2022-07-26T06:22:04.727Z,20.82
2022-07-26T06:24:32.634Z,20.94
2022-07-26T06:27:04.897Z,20.94
2022-07-26T06:29:34.603Z,20.69
2022-07-26T06:32:02.488Z,20.93
2022-07-26T06:34:30.324Z,21.29
2022-07-26T06:36:58.081Z,21.55
2022-07-26T06:39:25.965Z,21.49
2022-07-26T06:41:53.740Z,21.32
2022-07-26T06:44:22.592Z,21.25
2022-07-26T06:46:51.741Z,21.17
2022-07-26T06:49:22.720Z,21.02
2022-07-26T06:51:50.802Z,20.72
2022-07-26T06:54:18.637Z,20.89
2022-07-26T06:56:46.415Z,21.07
2022-07-26T06:59:14.228Z,21.41
2022-07-26T07:01:57.956Z,21.16
2022-07-26T07:04:29.922Z,21.58
2022-07-26T07:07:05.080Z,21.39
2022-07-26T07:09:33.798Z,21.56
2022-07-26T07:12:10.250Z,21.41
2022-07-26T07:14:39.443Z,20.91
2022-07-26T07:17:10.342Z,20.76
2022-07-26T07:19:42.321Z,20.72
2022-07-26T07:22:12.311Z,20.82
2022-07-26T07:24:40.861Z,21.15
2022-07-26T07:27:10.587Z,21.37
2022-07-26T07:29:38.995Z,21.95
2022-07-26T07:32:09.338Z,21.45
2022-07-26T07:34:47.960Z,21.13
2022-07-26T07:37:16.066Z,20.92
2022-07-26T07:39:43.849Z,21.69
2022-07-26T07:42:16.747Z,21.93
2022-07-26T07:44:44.875Z,22.04
2022-07-26T07:47:12.806Z,21.43
2022-07-26T07:49:40.609Z,22.04
2022-07-26T07:52:09.720Z,21.47
2022-07-26T07:54:37.911Z,21.57
2022-07-26T07:57:05.899Z,21.63
2022-07-26T07:59:33.660Z,21.55
2022-07-26T08:02:07.304Z,22.00
2022-07-26T08:04:35.240Z,22.41
2022-07-26T08:07:03.063Z,22.76
2022-07-26T08:09:33.996Z,23.01
2022-07-26T08:12:01.999Z,22.96
2022-07-26T08:14:30.038Z,23.00
2022-07-26T08:16:57.872Z,23.49
2022-07-26T08:19:26.007Z,23.82
2022-07-26T08:21:57.055Z,23.38
2022-07-26T08:24:25.015Z,23.35
2022-07-26T08:26:54.533Z,23.26
2022-07-26T08:29:22.317Z,23.32
2022-07-26T08:31:52.781Z,23.10
2022-07-26T08:34:21.920Z,23.52
2022-07-26T08:37:15.480Z,23.18
2022-07-26T08:39:37.448Z,22.91
2022-07-26T08:42:14.207Z,22.94
2022-07-26T08:44:44.371Z,22.76
2022-07-26T08:47:13.253Z,23.06
2022-07-26T08:49:41.571Z,22.96
2022-07-26T08:52:10.474Z,23.07
2022-07-26T08:54:44.018Z,23.28
2022-07-26T08:57:13.208Z,23.58
2022-07-26T08:59:41.434Z,23.29
2022-07-26T09:02:11.207Z,23.35
2022-07-26T09:04:44.491Z,23.18
2022-07-26T09:07:14.092Z,23.36
2022-07-26T09:09:58.564Z,23.22
2022-07-26T09:12:30.101Z,23.08
2022-07-26T09:14:58.509Z,22.66
2022-07-26T09:17:38.990Z,22.82
2022-07-26T09:20:10.038Z,22.84
2022-07-26T09:22:38.483Z,22.87
2022-07-26T09:25:21.270Z,23.23
2022-07-26T09:27:51.166Z,23.01
2022-07-26T09:30:19.760Z,23.26
2022-07-26T09:32:59.088Z,23.38
2022-07-26T09:38:16.057Z,24.44
2022-07-26T09:40:46.818Z,24.33
2022-07-26T09:43:24.112Z,23.85
2022-07-26T09:46:05.201Z,23.39
2022-07-26T09:48:59.341Z,22.97
2022-07-26T09:51:37.459Z,23.17
2022-07-26T09:54:05.706Z,23.34
2022-07-26T09:56:47.601Z,23.36
2022-07-26T09:59:19.317Z,23.12
2022-07-26T10:01:47.699Z,23.09
2022-07-26T10:04:15.923Z,23.40
2022-07-26T10:06:44.322Z,23.63
2022-07-26T10:09:13.711Z,23.47
2022-07-26T10:11:46.024Z,23.42
2022-07-26T10:14:41.846Z,23.15
2022-07-26T10:17:45.972Z,23.61
2022-07-26T10:20:43.129Z,23.97
2022-07-26T10:23:43.259Z,23.86
2022-07-26T10:26:14.546Z,24.66
2022-07-26T10:28:43.046Z,25.17
2022-07-26T10:31:35.891Z,24.58
2022-07-26T10:34:04.425Z,23.61
2022-07-26T10:36:36.943Z,23.34
2022-07-26T10:39:12.215Z,23.07
2022-07-26T10:41:42.831Z,23.16
2022-07-26T10:44:29.199Z,23.14
2022-07-26T10:47:01.537Z,23.33
2022-07-26T10:49:35.104Z,23.80
2022-07-26T10:52:15.010Z,23.87
2022-07-26T10:55:17.273Z,24.06
2022-07-26T10:57:47.432Z,23.95
2022-07-26T11:00:23.882Z,23.81
2022-07-26T11:02:58.371Z,23.78
2022-07-26T11:05:31.119Z,24.30
2022-07-26T11:08:05.038Z,24.29
2022-07-26T11:10:34.989Z,23.98
2022-07-26T11:13:07.818Z,23.52
2022-07-26T11:15:36.946Z,23.73
2022-07-26T11:18:21.236Z,23.97
2022-07-26T11:20:53.030Z,23.55
2022-07-26T11:23:34.408Z,23.63
2022-07-26T11:26:08.372Z,24.01
2022-07-26T11:28:55.175Z,23.92
2022-07-26T11:31:48.124Z,24.54
2022-07-26T11:34:20.782Z,24.43
2022-07-26T11:36:49.766Z,24.08
2022-07-26T11:39:22.458Z,23.60
2022-07-26T11:41:52.187Z,23.73
2022-07-26T11:44:21.819Z,23.82
2022-07-26T11:46:50.575Z,23.83
2022-07-26T11:49:25.086Z,24.13
2022-07-26T11:52:00.066Z,24.01
2022-07-26T11:54:29.726Z,23.93
2022-07-26T11:57:00.508Z,23.93
2022-07-26T11:59:30.235Z,24.95
2022-07-26T12:01:58.935Z,24.85
2022-07-26T12:04:30.159Z,24.54
2022-07-26T12:06:59.790Z,24.52
2022-07-26T12:09:33.021Z,24.43
2022-07-26T12:12:01.231Z,24.61
2022-07-26T12:14:30.065Z,24.87
2022-07-26T12:16:58.724Z,25.15
2022-07-26T12:19:30.513Z,24.72
2022-07-26T12:22:00.460Z,24.77
2022-07-26T12:24:46.640Z,25.21
2022-07-26T12:27:19.498Z,25.35
2022-07-26T12:29:47.693Z,25.81
2022-07-26T12:32:17.193Z,25.61
2022-07-26T12:34:59.067Z,25.59
2022-07-26T12:37:39.762Z,25.84
2022-07-26T12:40:10.934Z,25.35
2022-07-26T12:42:40.037Z,24.88
2022-07-26T12:45:10.161Z,25.54
2022-07-26T12:47:39.267Z,25.79
2022-07-26T12:50:10.399Z,25.96
2022-07-26T12:52:38.690Z,26.17
2022-07-26T12:55:10.102Z,26.41
2022-07-26T12:57:38.008Z,25.67
2022-07-26T13:00:10.776Z,25.54
2022-07-26T13:02:39.214Z,25.15
2022-07-26T13:05:09.392Z,25.37
2022-07-26T13:07:38.175Z,25.67
2022-07-26T13:10:31.904Z,25.74
2022-07-26T13:12:55.462Z,25.13
2022-07-26T13:15:23.372Z,24.77
2022-07-26T13:18:03.634Z,24.53
2022-07-26T13:20:33.090Z,24.68
2022-07-26T13:23:00.885Z,24.89
2022-07-26T13:25:34.550Z,24.85
2022-07-26T13:28:09.788Z,24.95
2022-07-26T13:30:39.206Z,25.17
2022-07-26T13:33:07.888Z,25.88
2022-07-26T13:35:38.838Z,26.61
2022-07-26T13:38:06.659Z,27.09
2022-07-26T13:40:34.430Z,27.09
2022-07-26T13:43:02.276Z,26.64
2022-07-26T13:45:30.113Z,26.37
2022-07-26T13:47:59.031Z,26.25
2022-07-26T13:50:27.316Z,26.93
2022-07-26T13:52:57.274Z,26.99
2022-07-26T13:55:25.818Z,27.88
2022-07-26T13:57:57.641Z,27.27
2022-07-26T14:00:27.267Z,27.15
2022-07-26T14:02:55.631Z,26.68
2022-07-26T14:05:23.760Z,26.69
2022-07-26T14:07:51.980Z,26.41
2022-07-26T14:10:21.808Z,26.56
2022-07-26T14:12:50.091Z,26.23
2022-07-26T14:15:22.097Z,25.88
2022-07-26T14:17:50.579Z,25.82
2022-07-26T14:20:18.374Z,25.74
2022-07-26T14:22:46.374Z,25.89
2022-07-26T14:25:14.645Z,26.09
2022-07-26T14:27:43.785Z,25.86
2022-07-26T14:30:12.748Z,26.07
2022-07-26T14:32:40.855Z,25.70
2022-07-26T14:35:10.189Z,25.65
2022-07-26T14:37:43.859Z,25.93
2022-07-26T14:40:14.465Z,26.06
2022-07-26T14:42:43.843Z,25.85
2022-07-26T14:45:12.212Z,25.64
2022-07-26T14:47:40.341Z,26.14
2022-07-26T14:50:10.003Z,25.98
2022-07-26T14:52:38.631Z,25.79
2022-07-26T14:55:07.472Z,25.54
2022-07-26T14:57:39.850Z,25.41
2022-07-26T15:00:11.858Z,25.48
2022-07-26T15:02:40.798Z,25.07
2022-07-26T15:05:09.306Z,25.15
2022-07-26T15:07:37.076Z,25.10
2022-07-26T15:10:06.521Z,24.91
2022-07-26T15:12:34.571Z,24.98
2022-07-26T15:15:02.361Z,24.97
2022-07-26T15:17:31.472Z,24.79
2022-07-26T15:19:59.241Z,24.90
2022-07-26T15:22:27.553Z,24.86
2022-07-26T15:24:55.306Z,24.85
2022-07-26T15:27:23.055Z,24.77
2022-07-26T15:29:50.908Z,25.17
2022-07-26T15:32:18.819Z,25.37
2022-07-26T15:34:47.983Z,25.65
2022-07-26T15:37:15.870Z,25.39
2022-07-26T15:39:43.633Z,25.34
2022-07-26T15:42:11.608Z,25.14
2022-07-26T15:44:43.222Z,25.26
2022-07-26T15:47:12.060Z,25.23
2022-07-26T15:49:40.302Z,25.26
2022-07-26T15:52:11.654Z,25.47
2022-07-26T15:54:41.635Z,25.02
2022-07-26T15:57:09.503Z,25.08
2022-07-26T15:59:37.379Z,25.19
2022-07-26T16:02:05.905Z,24.96
2022-07-26T16:04:33.657Z,24.86
2022-07-26T16:07:01.394Z,24.71
2022-07-26T16:09:30.512Z,25.21
2022-07-26T16:12:01.535Z,25.37
2022-07-26T16:14:31.989Z,25.49
2022-07-26T16:16:59.786Z,25.12
2022-07-26T16:19:27.598Z,25.21
2022-07-26T16:21:55.415Z,24.95
2022-07-26T16:24:23.218Z,25.21
2022-07-26T16:26:52.462Z,25.29
2022-07-26T16:29:20.195Z,25.54
2022-07-26T16:31:48.308Z,25.55
2022-07-26T16:34:16.105Z,24.75
2022-07-26T16:36:43.897Z,25.36
2022-07-26T16:39:11.894Z,25.41
2022-07-26T16:41:40.106Z,25.34
2022-07-26T16:44:09.266Z,25.20
2022-07-26T16:46:37.050Z,25.37
2022-07-26T16:49:05.370Z,25.22
2022-07-26T16:51:33.663Z,25.26
2022-07-26T16:54:01.473Z,25.43
2022-07-26T16:56:29.225Z,24.70
2022-07-26T16:58:56.975Z,24.85
2022-07-26T17:01:26.173Z,25.01
2022-07-26T17:03:53.975Z,24.61
2022-07-26T17:06:21.973Z,24.77
2022-07-26T17:08:49.781Z,25.15
2022-07-26T17:11:17.509Z,24.89
2022-07-26T17:13:45.328Z,24.95
2022-07-26T17:16:13.153Z,25.02
2022-07-26T17:18:42.353Z,24.73
2022-07-26T17:21:10.115Z,24.31
2022-07-26T17:23:38.612Z,24.59
2022-07-26T17:26:06.546Z,24.36
2022-07-26T17:28:34.592Z,24.49
2022-07-26T17:31:02.344Z,24.74
2022-07-26T17:33:30.183Z,24.60
2022-07-26T17:36:03.301Z,24.69
2022-07-26T17:38:34.689Z,23.39
2022-07-26T17:41:02.430Z,23.72
2022-07-26T17:43:36.837Z,23.69
2022-07-26T17:46:04.972Z,23.76
2022-07-26T17:48:32.874Z,23.91
2022-07-26T17:51:02.047Z,23.54
2022-07-26T17:53:34.730Z,23.52
2022-07-26T17:56:03.014Z,23.12
2022-07-26T17:58:31.098Z,23.57
2022-07-26T18:00:58.898Z,23.12
2022-07-26T18:03:26.639Z,22.97
2022-07-26T18:05:54.521Z,23.16
2022-07-26T18:08:26.945Z,23.17
2022-07-26T18:10:54.810Z,23.27
2022-07-26T18:13:22.845Z,23.44
2022-07-26T18:15:50.660Z,23.12
2022-07-26T18:18:18.619Z,22.98
2022-07-26T18:20:46.691Z,22.94
2022-07-26T18:23:14.866Z,22.81
2022-07-26T18:25:43.987Z,22.94
2022-07-26T18:28:11.990Z,22.94
2022-07-26T18:30:39.869Z,22.84
2022-07-26T18:33:11.984Z,22.73
2022-07-26T18:35:39.991Z,22.74
2022-07-26T18:38:07.792Z,23.00
2022-07-26T18:40:35.767Z,22.71
2022-07-26T18:43:05.059Z,22.54
2022-07-26T18:45:32.809Z,22.68
2022-07-26T18:48:00.542Z,22.58
2022-07-26T18:50:31.000Z,22.34
2022-07-26T18:53:00.274Z,22.60
2022-07-26T18:55:28.471Z,22.55
2022-07-26T18:57:56.191Z,22.35
2022-07-26T19:00:25.301Z,22.31
2022-07-26T19:02:54.623Z,22.32
2022-07-26T19:05:23.606Z,21.95
2022-07-26T19:07:52.270Z,21.88
2022-07-26T19:10:20.776Z,21.89
2022-07-26T19:12:54.455Z,22.06
2022-07-26T19:15:22.363Z,21.97
2022-07-26T19:17:51.724Z,21.70
2022-07-26T19:20:19.548Z,21.58
2022-07-26T19:22:48.393Z,21.72
2022-07-26T19:25:16.206Z,21.71
2022-07-26T19:27:44.727Z,21.70
2022-07-26T19:30:13.246Z,21.48
2022-07-26T19:32:41.047Z,21.30
2022-07-26T19:35:10.850Z,21.54
2022-07-26T19:37:38.653Z,21.39
2022-07-26T19:40:07.672Z,21.33
2022-07-26T19:42:35.467Z,21.34
2022-07-26T19:45:03.220Z,21.27
2022-07-26T19:47:31.064Z,21.09
2022-07-26T19:49:58.909Z,21.21
2022-07-26T19:52:28.585Z,21.07
2022-07-26T19:54:56.339Z,20.87
2022-07-26T19:57:24.481Z,20.99
2022-07-26T19:59:52.321Z,20.63
2022-07-26T20:02:20.144Z,20.82
2022-07-26T20:04:50.555Z,20.87
2022-07-26T20:07:19.553Z,20.74
2022-07-26T20:09:49.266Z,20.90
2022-07-26T20:12:17.878Z,20.75
2022-07-26T20:14:46.113Z,20.79
2022-07-26T20:17:14.194Z,20.66
2022-07-26T20:19:42.074Z,20.55
2022-07-26T20:22:09.859Z,20.48
2022-07-26T20:24:38.485Z,20.43
2022-07-26T20:27:08.115Z,20.48
2022-07-26T20:29:36.187Z,20.42
2022-07-26T20:32:04.510Z,20.55
2022-07-26T20:34:32.219Z,20.39
2022-07-26T20:36:59.939Z,20.34
2022-07-26T20:39:27.839Z,20.26
2022-07-26T20:41:57.066Z,20.29
2022-07-26T20:44:28.500Z,20.08
2022-07-26T20:46:56.581Z,20.07
2022-07-26T20:49:24.469Z,19.95
2022-07-26T20:51:52.277Z,19.81
2022-07-26T20:54:20.088Z,19.86
2022-07-26T20:56:47.879Z,19.96
2022-07-26T20:59:16.007Z,20.07
2022-07-26T21:01:45.194Z,20.14
2022-07-26T21:04:13.187Z,20.09
2022-07-26T21:06:40.966Z,19.97
2022-07-26T21:09:09.710Z,19.78
2022-07-26T21:11:38.410Z,19.70
2022-07-26T21:14:06.301Z,19.64
2022-07-26T21:16:34.118Z,19.64
2022-07-26T21:19:03.580Z,19.68
2022-07-26T21:21:31.442Z,19.54
2022-07-26T21:23:59.235Z,19.39
2022-07-26T21:26:26.991Z,19.34
2022-07-26T21:28:54.737Z,19.52
2022-07-26T21:31:22.551Z,19.52
2022-07-26T21:33:50.305Z,19.47
2022-07-26T21:36:19.678Z,19.49
2022-07-26T21:38:47.416Z,19.36
2022-07-26T21:41:15.192Z,19.15
2022-07-26T21:43:43.182Z,19.03
2022-07-26T21:46:13.032Z,19.27
2022-07-26T21:48:41.496Z,19.15
2022-07-26T21:51:09.336Z,19.12
2022-07-26T21:53:38.545Z,19.18
2022-07-26T21:56:06.635Z,19.09
2022-07-26T21:58:36.704Z,18.99
2022-07-26T22:01:06.270Z,19.02
2022-07-26T22:03:36.859Z,18.96
2022-07-26T22:06:05.492Z,18.87
2022-07-26T22:08:33.693Z,18.94
2022-07-26T22:11:03.096Z,18.79
2022-07-26T22:13:31.159Z,18.70
2022-07-26T22:15:59.116Z,18.81
2022-07-26T22:18:27.271Z,18.86
2022-07-26T22:20:55.403Z,18.78
2022-07-26T22:23:29.735Z,18.77
2022-07-26T22:25:58.144Z,18.68
2022-07-26T22:28:27.402Z,18.63
2022-07-26T22:30:55.692Z,18.56
2022-07-26T22:33:24.275Z,18.42
2022-07-26T22:35:53.068Z,18.32
2022-07-26T22:38:20.776Z,18.40
2022-07-26T22:40:48.512Z,18.53
2022-07-26T22:43:16.515Z,18.45
2022-07-26T22:45:45.717Z,18.17
2022-07-26T22:48:13.544Z,18.24
2022-07-26T22:50:41.295Z,18.30
2022-07-26T22:53:09.015Z,18.21
2022-07-26T22:55:36.854Z,18.07
2022-07-26T22:58:04.643Z,18.33
2022-07-26T23:00:32.390Z,18.31
2022-07-26T23:03:01.577Z,18.08
2022-07-26T23:05:36.595Z,18.34
2022-07-26T23:08:44.333Z,18.37
2022-07-26T23:11:01.849Z,17.98
2022-07-26T23:13:29.656Z,18.05
2022-07-26T23:16:00.810Z,18.00
2022-07-26T23:18:31.033Z,18.17
2022-07-26T23:20:58.917Z,18.29
2022-07-26T23:23:29.310Z,18.01
2022-07-26T23:25:58.732Z,18.00
2022-07-26T23:28:36.596Z,17.91
2022-07-26T23:31:07.931Z,17.90
2022-07-26T23:33:50.457Z,17.92
2022-07-26T23:36:21.476Z,17.79
2022-07-26T23:38:49.195Z,17.95
2022-07-26T23:41:16.949Z,17.84
2022-07-26T23:43:44.694Z,17.85
2022-07-26T23:46:12.456Z,17.94
2022-07-26T23:48:41.642Z,17.77
2022-07-26T23:51:09.572Z,17.45
2022-07-26T23:53:37.369Z,17.63
2022-07-26T23:56:05.522Z,17.76
2022-07-26T23:58:33.286Z,17.91
